METAR Data
IDs: Format: Raw Decoded Include TAF

Data at: 0216 UTC 24 Sep 2018

KARR 240152Z 05006KT 10SM CLR 16/12 A3011 RMK AO2 SLP195 T01560117
KARR 240052Z 06007KT 10SM CLR 17/12 A3011 RMK AO2 SLP195 T01670117
KARR 232352Z 06006KT 10SM CLR 18/11 A3009 RMK AO2 SLP191 T01830111 10239 20183 53002
KARR 232252Z 09007KT 10SM CLR 22/11 A3009 RMK AO2 SLP188 T02220106
KARR 232152Z 12006KT 10SM CLR 23/10 A3008 RMK AO2 SLP186 T02330100
KARR 232052Z 13008KT 10SM CLR 24/09 A3009 RMK AO2 SLP188 T02390094 56021
KARR 231952Z 13008KT 10SM CLR 24/09 A3010 RMK AO2 SLP192 T02390089
KARR 231852Z 11008KT 080V150 10SM CLR 23/09 A3012 RMK AO2 SLP200 T02280094
KARR 231752Z 07006KT 10SM CLR 22/10 A3015 RMK AO2 SLP210 T02170100 10217 20061 58016
KARR 231652Z 00000KT 10SM CLR 20/10 A3018 RMK AO2 SLP219 T02000100
KARR 231552Z 09006KT 10SM CLR 19/11 A3020 RMK AO2 SLP225 T01890106
KARR 231452Z 08004KT 10SM CLR 17/11 A3020 RMK AO2 SLP227 T01670111 51008
KARR 231352Z 09003KT 9SM CLR 14/11 A3020 RMK AO2 SLP227 T01390106
KARR 231252Z 00000KT 4SM BR CLR 10/09 A3018 RMK AO2 SLP223 T01000089
KARR 231152Z 00000KT 4SM BR CLR 06/06 A3018 RMK AO2 SLP220 T00610056 10083 20050 53001
KARR 231052Z AUTO 00000KT 8SM CLR 06/06 A3017 RMK AO2 SLP218 T00610056
KARR 230952Z AUTO 00000KT 5SM BR CLR 07/07 A3017 RMK AO2 SLP217 T00720067
KARR 230852Z AUTO 00000KT 7SM CLR 07/06 A3017 RMK AO2 SLP217 T00670056 58001
KARR 230752Z AUTO 00000KT 7SM CLR 07/06 A3017 RMK AO2 SLP219 T00720061
KARR 230652Z 00000KT 10SM CLR 07/06 A3018 RMK AO2 SLP221 T00720061
KARR 230552Z 00000KT 10SM CLR 07/07 A3017 RMK AO2 SLP218 T00720067 10144 20072 401940072 58010
KARR 230452Z 00000KT 10SM CLR 08/07 A3019 RMK AO2 SLP223 T00830067
KARR 230352Z 00000KT 10SM CLR 10/07 A3020 RMK AO2 SLP225 T01000072
KARR 230252Z 06003KT 10SM CLR 10/07 A3020 RMK AO2 SLP229 T01000067 50004
KARR 230152Z 00000KT 10SM CLR 11/07 A3021 RMK AO2 SLP230 T01060067
KARR 230052Z 05004KT 10SM CLR 12/06 A3019 RMK AO2 SLP225 T01170061
KARR 222352Z 05005KT 10SM CLR 14/06 A3019 RMK AO2 SLP225 T01440056 10194 20144 58008
KARR 222252Z 07005KT 10SM CLR 18/05 A3020 RMK AO2 SLP228 T01780050
KARR 222152Z 08006KT 10SM CLR 19/04 A3021 RMK AO2 SLP229 T01890044
KARR 222052Z 06010KT 10SM CLR 19/04 A3022 RMK AO2 SLP232 T01890044 56024
KARR 221952Z 06009KT 10SM CLR 19/04 A3023 RMK AO2 SLP238 T01940044
KARR 221852Z 07007KT 050V120 10SM CLR 19/05 A3026 RMK AO2 SLP246 T01890050
KARR 221752Z 08008KT 10SM CLR 18/04 A3029 RMK AO2 SLP256 T01830044 10189 20083 58010
KARR 221652Z 07009KT 10SM CLR 18/05 A3031 RMK AO2 SLP262 T01780050
KARR 221552Z 07013KT 030V100 10SM CLR 17/06 A3032 RMK AO2 SLP269 T01720061
KARR 221452Z 09015G20KT 10SM CLR 17/06 A3032 RMK AO2 SLP267 T01670061 50001